Time;durP1;ratioP1;P1;durP2;ratioP2;P2;SDS_P1;SDS_P2;PMS_P1;PMS_P2;Temp;Humidity;BMP_temperature;BMP_pressure;BME280_temperature;BME280_humidity;BME280_pressure;Samples;Min_cycle;Max_cycle;Signal;HPM_P1;HPM_P2
2021/08/16 00:01:38;;;;;;;2.33;0.98;;;;;;;21.03;99.28;99984.19;5050023;28;20394;-66
2021/08/16 00:04:04;;;;;;;2.42;1.30;;;;;;;20.98;99.01;99992.97;5035085;28;20595;-66
2021/08/16 00:06:29;;;;;;;3.25;1.35;;;;;;;21.01;98.72;99987.38;5050802;28;20107;-66
2021/08/16 00:08:55;;;;;;;1.95;1.35;;;;;;;20.92;99.08;99992.75;5052838;28;20037;-68
2021/08/16 00:11:20;;;;;;;3.22;1.45;;;;;;;20.85;99.58;100008.66;5051048;28;20035;-67
2021/08/16 00:13:46;;;;;;;1.58;1.00;;;;;;;20.78;99.55;100022.53;5045047;28;20094;-66
2021/08/16 00:16:11;;;;;;;1.63;1.20;;;;;;;20.91;98.63;100001.38;5051031;28;20110;-66
2021/08/16 00:18:37;;;;;;;1.83;1.02;;;;;;;20.88;99.65;99988.59;5051251;28;20036;-68
2021/08/16 00:21:03;;;;;;;5.03;1.20;;;;;;;20.91;99.23;99974.78;5045491;28;20049;-69
2021/08/16 00:23:29;;;;;;;2.40;1.10;;;;;;;20.91;99.07;99963.81;5050038;28;20059;-66
2021/08/16 00:25:55;;;;;;;1.77;1.13;;;;;;;20.67;99.96;99963.44;5051288;28;20110;-65
2021/08/16 00:28:21;;;;;;;1.52;1.08;;;;;;;20.81;99.77;99975.88;5052132;28;20484;-65
2021/08/16 00:30:46;;;;;;;4.07;1.33;;;;;;;20.72;100.00;99975.78;5044901;28;20025;-69
2021/08/16 00:33:12;;;;;;;1.77;1.20;;;;;;;20.67;100.00;99973.63;5051037;28;20527;-69
2021/08/16 00:35:37;;;;;;;4.15;1.60;;;;;;;20.80;99.51;99974.38;5045898;28;20095;-66
2021/08/16 00:38:04;;;;;;;2.25;1.20;;;;;;;20.91;98.27;99966.56;5051661;28;20024;-68
2021/08/16 00:40:30;;;;;;;3.38;1.60;;;;;;;20.91;97.79;99968.53;5050884;28;20051;-66
2021/08/16 00:42:56;;;;;;;2.17;1.25;;;;;;;20.79;98.89;99972.81;5028064;28;20040;-66
2021/08/16 00:45:21;;;;;;;2.88;1.23;;;;;;;20.70;98.93;100013.78;5035404;28;20044;-66
2021/08/16 00:47:47;;;;;;;2.63;1.40;;;;;;;20.61;99.07;100027.38;5051804;28;20025;-66
2021/08/16 00:50:13;;;;;;;2.28;1.20;;;;;;;20.52;99.30;99999.88;5051011;28;20551;-70
2021/08/16 00:52:41;;;;;;;3.20;1.48;;;;;;;20.49;99.79;99976.16;5043504;28;20373;-66
2021/08/16 00:55:09;;;;;;;2.45;1.50;;;;;;;20.52;100.00;99956.09;5051694;28;20037;-71
2021/08/16 00:57:35;;;;;;;2.88;1.35;;;;;;;20.60;100.00;99966.41;5043805;28;20127;-66
2021/08/16 01:00:08;;;;;;;3.15;1.35;;;;;;;20.33;100.00;99954.38;5051381;28;20104;-66
2021/08/16 01:02:35;;;;;;;2.25;1.20;;;;;;;20.30;100.00;99960.72;5045979;28;20025;-66
2021/08/16 01:05:04;;;;;;;3.85;1.45;;;;;;;20.23;100.00;99975.38;5033086;28;20108;-66
2021/08/16 01:07:31;;;;;;;1.73;1.10;;;;;;;20.26;100.00;99995.63;5051184;28;20063;-66
2021/08/16 01:09:57;;;;;;;3.92;1.20;;;;;;;20.29;100.00;100000.19;5037139;28;20036;-66
2021/08/16 01:12:23;;;;;;;2.10;1.35;;;;;;;20.13;100.00;99981.88;5045858;28;20032;-69
2021/08/16 01:14:49;;;;;;;3.75;1.77;;;;;;;20.28;100.00;99965.84;5045276;28;20481;-66
2021/08/16 01:17:15;;;;;;;4.82;1.15;;;;;;;20.25;100.00;99955.78;5044272;28;20401;-66
2021/08/16 01:19:40;;;;;;;2.10;1.27;;;;;;;19.93;100.00;99948.53;5041502;28;20036;-66
2021/08/16 01:22:06;;;;;;;2.72;1.10;;;;;;;20.02;100.00;99943.16;5050301;28;20486;-69
2021/08/16 01:24:31;;;;;;;3.58;1.23;;;;;;;20.10;100.00;99946.44;5040657;28;20513;-65
2021/08/16 01:27:04;;;;;;;2.22;1.00;;;;;;;20.10;100.00;99949.19;5041448;28;20024;-66
2021/08/16 01:29:29;;;;;;;3.08;1.20;;;;;;;19.91;100.00;99931.78;5050039;28;20033;-66
2021/08/16 01:31:55;;;;;;;2.05;1.50;;;;;;;19.69;100.00;99942.56;5047071;28;20052;-67
2021/08/16 01:34:20;;;;;;;1.92;1.25;;;;;;;19.54;100.00;99959.78;5045362;28;20098;-68
2021/08/16 01:36:46;;;;;;;3.05;1.33;;;;;;;19.50;100.00;99959.88;5044278;28;20045;-65
2021/08/16 01:39:11;;;;;;;3.22;1.33;;;;;;;19.60;100.00;99964.28;5050043;28;20041;-65
2021/08/16 01:41:37;;;;;;;3.20;1.40;;;;;;;19.68;100.00;99957.44;5045237;28;20032;-68
2021/08/16 01:44:02;;;;;;;2.22;1.10;;;;;;;19.46;100.00;99942.81;5047697;28;20063;-66
2021/08/16 01:46:28;;;;;;;4.72;1.58;;;;;;;19.52;100.00;99946.56;5049205;28;20058;-67
2021/08/16 01:48:53;;;;;;;2.95;1.63;;;;;;;19.64;100.00;99937.66;5046756;28;20493;-67
2021/08/16 01:51:19;;;;;;;3.58;1.48;;;;;;;19.49;100.00;99935.75;5042009;28;20032;-67
2021/08/16 01:53:45;;;;;;;2.92;1.92;;;;;;;19.39;100.00;99936.78;5045836;28;20037;-65
2021/08/16 01:56:10;;;;;;;3.83;1.42;;;;;;;19.29;100.00;99929.63;5050394;28;20032;-66
2021/08/16 01:58:36;;;;;;;2.70;1.30;;;;;;;19.38;100.00;99933.28;5045800;28;20382;-67
2021/08/16 02:01:02;;;;;;;3.25;1.50;;;;;;;19.40;100.00;99919.97;5044597;28;20247;-66
2021/08/16 02:03:30;;;;;;;2.22;1.05;;;;;;;19.19;100.00;99920.50;5044654;28;20025;-66
2021/08/16 02:05:55;;;;;;;3.28;1.27;;;;;;;19.06;100.00;99918.94;5050372;28;20129;-68
2021/08/16 02:08:21;;;;;;;2.88;1.20;;;;;;;19.24;100.00;99921.97;5049492;28;20508;-66
2021/08/16 02:10:46;;;;;;;3.10;1.13;;;;;;;19.02;100.00;99918.25;5050402;28;20041;-66
2021/08/16 02:13:12;;;;;;;2.28;1.40;;;;;;;18.86;100.00;99924.50;5043738;28;20045;-68
2021/08/16 02:15:38;;;;;;;3.30;1.45;;;;;;;18.84;100.00;99926.88;5050268;28;20137;-67
2021/08/16 02:18:04;;;;;;;2.60;1.52;;;;;;;18.85;100.00;99929.19;5046680;28;20029;-66
2021/08/16 02:20:30;;;;;;;3.05;1.80;;;;;;;18.88;100.00;99927.56;5041780;28;20094;-69
2021/08/16 02:22:55;;;;;;;2.95;1.55;;;;;;;18.94;100.00;99928.59;5048408;28;20636;-66
2021/08/16 02:25:21;;;;;;;2.42;1.45;;;;;;;19.04;100.00;99930.28;5037628;28;20544;-67
2021/08/16 02:27:49;;;;;;;5.30;1.60;;;;;;;19.18;100.00;99935.34;5049921;28;20179;-69
2021/08/16 02:30:16;;;;;;;2.45;1.30;;;;;;;19.19;100.00;99931.44;5032275;28;20013;-66
2021/08/16 02:32:42;;;;;;;4.20;1.60;;;;;;;19.13;100.00;99930.41;5047205;28;20079;-66
2021/08/16 02:35:08;;;;;;;3.08;1.70;;;;;;;19.03;100.00;99928.00;5045160;28;20025;-66
2021/08/16 02:37:34;;;;;;;2.85;1.50;;;;;;;18.99;100.00;99930.03;5047403;28;20040;-67
2021/08/16 02:39:59;;;;;;;3.15;1.60;;;;;;;19.04;100.00;99930.28;5049483;28;20036;-65
2021/08/16 02:42:26;;;;;;;3.38;1.75;;;;;;;19.04;100.00;99924.06;5048362;28;20115;-69
2021/08/16 02:44:51;;;;;;;1.92;1.40;;;;;;;18.99;100.00;99919.88;5046039;28;20021;-69
2021/08/16 02:47:21;;;;;;;3.25;1.73;;;;;;;19.03;100.00;99926.00;5048764;28;20033;-65
2021/08/16 02:49:48;;;;;;;2.75;1.40;;;;;;;19.06;100.00;99927.13;5048853;28;20033;-65
2021/08/16 02:52:14;;;;;;;3.15;1.60;;;;;;;19.03;100.00;99914.34;5055073;28;20400;-67
2021/08/16 02:54:39;;;;;;;3.50;1.50;;;;;;;18.93;100.00;99916.13;5050033;28;20032;-65
2021/08/16 02:57:05;;;;;;;2.22;1.38;;;;;;;18.86;100.00;99917.09;5038587;28;20033;-68
2021/08/16 02:59:30;;;;;;;3.08;1.55;;;;;;;18.77;100.00;99914.22;5045424;28;20520;-66
2021/08/16 03:01:56;;;;;;;3.40;1.80;;;;;;;18.87;100.00;99915.13;5047279;28;20139;-67
2021/08/16 03:04:21;;;;;;;3.03;1.48;;;;;;;19.07;100.00;99904.84;5044495;28;20024;-66
2021/08/16 03:06:47;;;;;;;4.32;1.70;;;;;;;19.06;100.00;99906.06;5047779;28;20032;-66
2021/08/16 03:09:12;;;;;;;4.47;1.52;;;;;;;18.98;100.00;99901.19;5054010;28;20045;-68
2021/08/16 03:11:37;;;;;;;2.97;1.40;;;;;;;18.99;100.00;99891.81;5042027;28;20037;-66
2021/08/16 03:14:03;;;;;;;3.03;1.90;;;;;;;19.00;100.00;99899.59;5039956;28;20028;-66
2021/08/16 03:16:28;;;;;;;3.20;1.48;;;;;;;18.85;100.00;99885.53;5041083;28;20087;-68
2021/08/16 03:18:54;;;;;;;6.10;1.58;;;;;;;18.83;100.00;99878.97;5040232;28;20520;-65
2021/08/16 03:21:19;;;;;;;2.08;1.45;;;;;;;18.88;100.00;99873.00;5036897;28;20056;-65
2021/08/16 03:23:45;;;;;;;3.50;1.80;;;;;;;18.85;100.00;99869.16;5052729;28;20067;-66
2021/08/16 03:26:10;;;;;;;3.22;1.42;;;;;;;18.88;100.00;99879.22;5053198;28;20040;-65
2021/08/16 03:28:36;;;;;;;2.97;1.52;;;;;;;18.89;100.00;99880.75;5043804;28;20052;-66
2021/08/16 03:31:01;;;;;;;3.05;1.48;;;;;;;18.94;100.00;99871.28;5052208;28;20025;-66
2021/08/16 03:33:27;;;;;;;3.80;1.73;;;;;;;18.82;100.00;99867.28;5050977;28;20504;-66
2021/08/16 03:35:52;;;;;;;3.10;1.55;;;;;;;18.89;100.00;99858.16;5045370;28;20059;-65
2021/08/16 03:38:18;;;;;;;3.17;1.52;;;;;;;18.89;100.00;99858.91;5036005;28;20438;-65
2021/08/16 03:40:43;;;;;;;3.25;1.63;;;;;;;18.88;100.00;99848.44;5034914;28;20022;-68
2021/08/16 03:43:10;;;;;;;3.78;1.63;;;;;;;18.91;100.00;99853.78;5040001;28;20667;-65
2021/08/16 03:45:35;;;;;;;3.13;1.80;;;;;;;18.87;100.00;99852.38;5036564;28;20071;-67
2021/08/16 03:48:01;;;;;;;4.43;1.67;;;;;;;18.72;100.00;99832.84;5062984;28;20036;-67
2021/08/16 03:50:26;;;;;;;3.42;1.55;;;;;;;18.77;100.00;99839.75;5052592;28;20032;-66
2021/08/16 03:52:52;;;;;;;2.92;1.95;;;;;;;18.73;100.00;99845.31;5047552;28;20045;-68
2021/08/16 03:55:17;;;;;;;3.03;1.70;;;;;;;18.83;100.00;99843.50;5049979;28;20072;-66
2021/08/16 03:57:43;;;;;;;1.90;1.38;;;;;;;18.76;100.00;99838.22;5052484;28;20029;-65
2021/08/16 04:00:11;;;;;;;2.53;1.42;;;;;;;18.79;100.00;99834.66;5048049;28;20063;-66
2021/08/16 04:02:41;;;;;;;2.65;1.50;;;;;;;18.73;100.00;99830.91;5023242;28;20080;-65
2021/08/16 04:05:08;;;;;;;3.28;1.60;;;;;;;18.60;100.00;99833.56;5047831;28;20393;-66
2021/08/16 04:07:34;;;;;;;4.80;1.85;;;;;;;18.70;100.00;99837.22;5043565;28;20057;-65
2021/08/16 04:09:59;;;;;;;2.75;1.67;;;;;;;18.84;100.00;99829.44;5028025;28;20041;-70
2021/08/16 04:12:25;;;;;;;3.53;1.75;;;;;;;18.75;100.00;99836.69;5015898;28;20060;-71
2021/08/16 04:14:50;;;;;;;9.18;2.30;;;;;;;18.88;100.00;99823.88;5020553;28;20479;-67
2021/08/16 04:17:16;;;;;;;3.03;1.60;;;;;;;18.83;100.00;99827.13;5014687;28;20041;-67
2021/08/16 04:19:41;;;;;;;4.97;1.52;;;;;;;18.83;100.00;99829.88;5043598;28;20080;-66
2021/08/16 04:22:08;;;;;;;3.90;1.92;;;;;;;18.84;100.00;99831.38;5036841;28;20038;-68
2021/08/16 04:24:33;;;;;;;3.55;1.75;;;;;;;18.74;100.00;99835.16;5045202;28;20164;-68
2021/08/16 04:26:59;;;;;;;2.72;1.77;;;;;;;18.72;100.00;99821.16;5051662;28;20135;-65
2021/08/16 04:29:25;;;;;;;3.17;1.73;;;;;;;18.73;100.00;99826.22;5051912;28;20067;-66
2021/08/16 04:31:50;;;;;;;3.70;1.92;;;;;;;18.66;100.00;99825.66;5048801;28;20028;-66
2021/08/16 04:34:16;;;;;;;6.10;1.77;;;;;;;18.74;100.00;99818.78;5045829;28;20032;-67
2021/08/16 04:36:41;;;;;;;4.32;1.95;;;;;;;18.84;100.00;99810.31;5051472;28;20049;-66
2021/08/16 04:39:07;;;;;;;3.33;1.83;;;;;;;18.84;100.00;99817.75;5045308;28;20053;-66
2021/08/16 04:41:32;;;;;;;5.03;1.80;;;;;;;18.74;100.00;99810.59;5029008;28;20099;-66
2021/08/16 04:43:58;;;;;;;4.68;1.98;;;;;;;18.75;100.00;99814.88;5040541;28;20033;-66
2021/08/16 04:46:23;;;;;;;5.88;1.90;;;;;;;18.84;100.00;99817.75;5046915;28;20108;-66
2021/08/16 04:48:49;;;;;;;5.72;2.20;;;;;;;18.82;100.00;99814.66;5037325;28;20830;-66
2021/08/16 04:51:14;;;;;;;6.00;2.08;;;;;;;18.83;100.00;99813.50;5035264;28;20053;-65
2021/08/16 04:53:40;;;;;;;4.90;2.08;;;;;;;18.85;100.00;99819.28;5047079;28;20068;-66
2021/08/16 04:56:05;;;;;;;5.97;2.38;;;;;;;18.93;100.00;99821.38;5041721;28;20529;-67
2021/08/16 04:58:31;;;;;;;4.75;1.90;;;;;;;18.89;100.00;99815.25;5038663;28;20390;-66
2021/08/16 05:00:57;;;;;;;7.88;2.10;;;;;;;18.99;100.00;99807.22;5049840;28;20033;-67
2021/08/16 05:03:22;;;;;;;5.35;2.40;;;;;;;18.97;100.00;99807.63;5038858;28;20116;-66
2021/08/16 05:05:52;;;;;;;4.70;2.35;;;;;;;19.14;100.00;99802.88;5045269;28;20152;-67
2021/08/16 05:08:17;;;;;;;6.20;2.60;;;;;;;19.00;100.00;99800.53;5037720;28;20045;-66
2021/08/16 05:10:44;;;;;;;5.07;2.47;;;;;;;18.99;100.00;99799.78;5046367;28;20079;-69
2021/08/16 05:13:09;;;;;;;5.10;2.70;;;;;;;19.06;100.00;99790.63;5045965;28;20054;-66
2021/08/16 05:15:35;;;;;;;8.25;3.25;;;;;;;19.09;100.00;99795.22;5049319;28;20041;-66
2021/08/16 05:18:02;;;;;;;8.55;3.00;;;;;;;19.07;100.00;99794.88;5035543;28;20091;-68
2021/08/16 05:20:31;;;;;;;8.80;3.20;;;;;;;19.00;100.00;99784.94;5044310;28;20047;-67
2021/08/16 05:22:57;;;;;;;8.98;3.35;;;;;;;19.14;100.00;99795.47;5050960;28;20031;-67
2021/08/16 05:25:22;;;;;;;8.77;4.18;;;;;;;19.18;100.00;99784.44;5039341;28;20885;-66
2021/08/16 05:27:48;;;;;;;11.85;3.58;;;;;;;19.13;100.00;99784.97;5054451;28;20040;-68
2021/08/16 05:30:14;;;;;;;7.45;3.40;;;;;;;19.25;100.00;99786.97;5029583;28;20035;-68
2021/08/16 05:32:41;;;;;;;7.45;3.58;;;;;;;19.37;100.00;99791.72;5026930;28;20405;-66
2021/08/16 05:35:07;;;;;;;8.90;2.95;;;;;;;19.41;100.00;99790.41;5045956;28;20067;-67
2021/08/16 05:37:33;;;;;;;6.68;3.22;;;;;;;19.32;100.00;99795.72;5024488;28;20036;-67
2021/08/16 05:39:59;;;;;;;9.02;3.22;;;;;;;19.41;100.00;99795.09;5045287;28;20033;-67
2021/08/16 05:42:24;;;;;;;7.70;3.40;;;;;;;19.37;100.00;99795.22;5043395;28;20017;-66
2021/08/16 05:44:49;;;;;;;6.03;3.53;;;;;;;19.33;100.00;99799.22;5033135;28;20115;-66
2021/08/16 05:47:15;;;;;;;5.88;3.30;;;;;;;19.26;100.00;99802.16;5038447;28;20092;-66
2021/08/16 05:49:40;;;;;;;9.50;3.42;;;;;;;19.22;100.00;99799.50;5036738;28;20094;-67
2021/08/16 05:52:06;;;;;;;9.13;4.13;;;;;;;19.21;100.00;99808.91;5031643;28;20021;-66
2021/08/16 05:54:32;;;;;;;6.82;3.35;;;;;;;19.24;100.00;99799.84;5033274;28;20176;-67
2021/08/16 05:56:57;;;;;;;8.88;3.50;;;;;;;19.25;100.00;99800.59;5040047;28;20025;-69
2021/08/16 05:59:22;;;;;;;6.15;3.30;;;;;;;19.28;100.00;99803.22;5035606;28;20477;-66
2021/08/16 06:01:48;;;;;;;7.32;3.13;;;;;;;19.28;100.00;99799.75;5032098;28;20036;-65
2021/08/16 06:04:13;;;;;;;8.70;4.47;;;;;;;19.40;100.00;99796.28;5023237;28;21744;-67
2021/08/16 06:06:39;;;;;;;7.28;3.28;;;;;;;19.37;100.00;99803.41;5037600;28;20029;-66
2021/08/16 06:09:05;;;;;;;7.65;3.38;;;;;;;19.41;100.00;99798.59;5035767;28;20484;-65
2021/08/16 06:11:31;;;;;;;6.38;3.65;;;;;;;19.45;100.00;99798.50;5048184;28;20021;-65
2021/08/16 06:13:57;;;;;;;7.07;3.05;;;;;;;19.62;100.00;99802.66;5035764;28;20504;-66
2021/08/16 06:16:23;;;;;;;4.32;2.58;;;;;;;19.75;100.00;99800.69;5037155;28;20043;-66
2021/08/16 06:18:49;;;;;;;11.40;3.88;;;;;;;19.74;100.00;99807.38;5035788;28;20508;-66
2021/08/16 06:21:15;;;;;;;8.98;3.72;;;;;;;19.73;100.00;99797.63;5046603;28;20040;-67
2021/08/16 06:23:40;;;;;;;5.97;3.05;;;;;;;19.60;100.00;99799.59;5027135;28;20040;-67
2021/08/16 06:26:07;;;;;;;7.80;3.13;;;;;;;19.47;100.00;99798.81;5050166;28;20032;-65
2021/08/16 06:28:33;;;;;;;5.63;2.83;;;;;;;19.39;100.00;99800.22;5031409;28;20045;-69
2021/08/16 06:30:58;;;;;;;6.43;2.75;;;;;;;19.40;100.00;99802.53;5028902;28;20032;-71
2021/08/16 06:33:24;;;;;;;5.38;2.85;;;;;;;19.47;100.00;99796.84;5060427;28;20037;-65
2021/08/16 06:35:50;;;;;;;7.88;3.70;;;;;;;19.43;100.00;99787.25;5054330;28;20069;-68
2021/08/16 06:38:23;;;;;;;5.00;2.75;;;;;;;19.44;100.00;99792.25;5046279;28;20039;-66
2021/08/16 06:40:50;;;;;;;4.85;3.08;;;;;;;19.46;100.00;99797.28;5061250;28;20063;-65
2021/08/16 06:43:16;;;;;;;6.40;3.15;;;;;;;19.43;100.00;99793.47;5047495;28;20386;-68
2021/08/16 06:45:42;;;;;;;6.75;3.17;;;;;;;19.45;100.00;99793.03;5044814;28;20045;-67
2021/08/16 06:48:08;;;;;;;7.78;3.92;;;;;;;19.44;100.00;99797.72;5051271;28;20040;-68
2021/08/16 06:50:33;;;;;;;10.82;3.88;;;;;;;19.43;100.00;99798.94;5034591;28;20470;-66
2021/08/16 06:52:59;;;;;;;9.48;3.35;;;;;;;19.44;100.00;99796.94;5037284;28;20061;-65
2021/08/16 06:55:24;;;;;;;6.32;3.03;;;;;;;19.41;100.00;99803.28;5038761;28;20060;-66
2021/08/16 06:57:49;;;;;;;6.30;3.33;;;;;;;19.58;100.00;99805.50;5036779;28;20037;-68
2021/08/16 07:00:15;;;;;;;8.02;3.28;;;;;;;19.53;100.00;99797.09;5050759;28;20033;-66
2021/08/16 07:02:41;;;;;;;7.20;3.40;;;;;;;19.48;100.00;99801.13;5037786;28;20025;-67
2021/08/16 07:05:08;;;;;;;9.13;3.13;;;;;;;19.59;100.00;99796.09;5035259;28;20135;-66
2021/08/16 07:07:33;;;;;;;7.35;3.00;;;;;;;19.70;100.00;99798.50;4999313;28;20033;-65
2021/08/16 07:09:59;;;;;;;8.00;3.28;;;;;;;19.67;100.00;99805.59;5038570;28;20490;-66
2021/08/16 07:12:24;;;;;;;6.93;3.20;;;;;;;19.71;100.00;99800.03;5036127;28;20025;-67
2021/08/16 07:14:50;;;;;;;7.65;3.13;;;;;;;19.64;100.00;99803.75;5041414;28;20029;-66
2021/08/16 07:17:15;;;;;;;6.60;2.80;;;;;;;19.53;100.00;99800.56;5030738;28;20040;-65
2021/08/16 07:19:41;;;;;;;5.80;3.35;;;;;;;19.61;100.00;99798.38;5032816;28;20060;-66
2021/08/16 07:22:07;;;;;;;7.63;3.47;;;;;;;19.64;100.00;99806.50;5050041;28;20048;-65
2021/08/16 07:24:32;;;;;;;5.95;3.17;;;;;;;19.74;100.00;99805.38;5052907;28;20024;-65
2021/08/16 07:26:58;;;;;;;8.50;3.47;;;;;;;19.72;100.00;99813.25;5033345;28;20033;-65
2021/08/16 07:29:25;;;;;;;6.28;3.08;;;;;;;19.78;100.00;99800.56;5050663;28;20044;-65
2021/08/16 07:31:51;;;;;;;7.90;3.97;;;;;;;19.76;100.00;99800.25;5047359;28;20031;-65
2021/08/16 07:34:16;;;;;;;8.13;2.95;;;;;;;19.80;100.00;99794.69;5052078;28;20557;-64
2021/08/16 07:36:41;;;;;;;6.32;2.95;;;;;;;19.85;100.00;99799.59;5060078;28;20144;-66
2021/08/16 07:39:07;;;;;;;6.63;3.70;;;;;;;19.82;100.00;99799.72;5049331;28;20037;-67
2021/08/16 07:41:32;;;;;;;4.75;3.08;;;;;;;19.94;100.00;99810.63;5040422;28;20468;-65
2021/08/16 07:43:58;;;;;;;6.38;3.10;;;;;;;19.95;99.88;99805.94;5034153;28;20052;-65
2021/08/16 07:46:23;;;;;;;6.65;3.17;;;;;;;20.02;99.28;99811.94;5039934;28;20075;-65
2021/08/16 07:48:49;;;;;;;5.65;3.25;;;;;;;19.92;100.00;99804.81;5035754;28;20086;-65
2021/08/16 07:51:14;;;;;;;10.60;3.10;;;;;;;19.88;99.66;99815.09;5033805;28;20155;-66
2021/08/16 07:53:43;;;;;;;7.00;3.95;;;;;;;19.84;99.92;99810.97;5032609;28;20035;-66
2021/08/16 07:56:09;;;;;;;5.43;2.92;;;;;;;19.86;100.00;99816.75;5041572;28;20091;-66
2021/08/16 07:58:34;;;;;;;7.90;2.95;;;;;;;20.06;98.86;99812.59;5032732;28;20112;-68
2021/08/16 08:00:59;;;;;;;8.98;3.20;;;;;;;19.97;99.09;99812.50;5032753;28;20029;-66
2021/08/16 08:03:25;;;;;;;6.32;2.92;;;;;;;19.97;99.98;99809.00;5043174;28;20045;-67
2021/08/16 08:05:51;;;;;;;6.75;3.28;;;;;;;19.95;98.55;99800.47;5030178;28;20028;-66
2021/08/16 08:08:17;;;;;;;8.95;3.13;;;;;;;20.03;98.87;99797.06;5038776;28;20045;-66
2021/08/16 08:10:42;;;;;;;5.82;3.22;;;;;;;20.09;98.64;99806.22;5041969;28;20036;-66
2021/08/16 08:13:07;;;;;;;6.82;3.45;;;;;;;20.11;98.69;99803.81;5029455;28;20068;-66
2021/08/16 08:15:33;;;;;;;6.07;3.25;;;;;;;19.99;99.04;99801.13;5044300;28;20041;-66
2021/08/16 08:17:58;;;;;;;5.55;3.08;;;;;;;20.07;98.64;99796.94;5039216;28;20048;-64
2021/08/16 08:20:24;;;;;;;5.53;2.97;;;;;;;20.23;98.06;99805.03;5038540;28;20056;-69
2021/08/16 08:22:49;;;;;;;5.45;3.03;;;;;;;20.29;98.49;99809.50;5047141;28;20029;-66
2021/08/16 08:25:15;;;;;;;6.18;3.25;;;;;;;20.28;97.55;99813.47;5051850;28;20405;-65
2021/08/16 08:27:40;;;;;;;8.18;3.22;;;;;;;20.39;96.20;99799.41;5044755;28;20039;-66
2021/08/16 08:30:08;;;;;;;6.10;2.83;;;;;;;20.50;95.62;99799.81;5050461;28;20043;-65
2021/08/16 08:32:50;;;;;;;6.63;3.13;;;;;;;20.52;94.88;99805.59;5050691;28;20032;-65
2021/08/16 08:35:16;;;;;;;7.78;2.80;;;;;;;20.44;95.39;99804.34;5037249;28;20037;-64
2021/08/16 08:37:41;;;;;;;4.28;2.60;;;;;;;20.18;96.25;99802.84;5042492;28;20064;-68
2021/08/16 08:40:07;;;;;;;4.82;2.25;;;;;;;20.13;96.19;99797.94;5060357;28;20024;-65
2021/08/16 08:42:33;;;;;;;6.20;2.38;;;;;;;20.37;95.13;99804.56;5036085;28;20033;-66
2021/08/16 08:45:00;;;;;;;2.55;1.70;;;;;;;20.41;95.79;99810.69;5035699;28;20079;-66
2021/08/16 08:47:25;;;;;;;3.53;2.30;;;;;;;20.46;94.98;99808.16;5041985;28;20039;-67
2021/08/16 08:49:51;;;;;;;4.18;2.40;;;;;;;20.40;94.41;99803.69;5037530;28;20029;-66
2021/08/16 08:52:16;;;;;;;3.60;2.17;;;;;;;20.43;95.08;99803.56;5034369;28;20445;-70
2021/08/16 08:54:42;;;;;;;4.38;2.35;;;;;;;20.55;94.16;99804.75;5037393;28;20510;-66
2021/08/16 08:57:11;;;;;;;4.25;2.13;;;;;;;20.43;94.21;99809.03;5038888;28;20560;-66
2021/08/16 08:59:37;;;;;;;4.05;2.33;;;;;;;20.52;93.61;99809.13;5043721;28;20041;-66
2021/08/16 09:02:03;;;;;;;6.82;2.28;;;;;;;20.55;93.80;99805.50;5031406;28;20363;-67
2021/08/16 09:04:31;;;;;;;5.40;2.95;;;;;;;20.58;93.19;99804.63;5032926;28;20029;-67
2021/08/16 09:06:56;;;;;;;3.92;2.35;;;;;;;20.58;92.66;99803.84;5045187;28;20070;-67
2021/08/16 09:09:22;;;;;;;2.50;1.80;;;;;;;20.65;93.18;99803.63;5032478;28;20060;-67
2021/08/16 09:11:49;;;;;;;7.05;2.63;;;;;;;20.74;92.29;99802.91;5048709;28;20069;-67
2021/08/16 09:14:15;;;;;;;4.18;2.15;;;;;;;20.67;91.97;99809.41;5050459;28;20036;-68
2021/08/16 09:16:43;;;;;;;4.20;2.20;;;;;;;20.76;91.55;99803.22;5050878;28;20037;-68
2021/08/16 09:19:15;;;;;;;5.43;2.00;;;;;;;20.72;90.45;99803.34;5045696;28;20094;-68
2021/08/16 09:21:44;;;;;;;3.53;1.65;;;;;;;20.88;90.03;99816.88;5042263;28;20040;-68
2021/08/16 09:24:10;;;;;;;3.00;1.90;;;;;;;20.81;90.74;99822.59;5050712;28;20089;-67
2021/08/16 09:26:38;;;;;;;4.95;1.92;;;;;;;20.89;92.27;99803.94;5051195;28;20111;-68
2021/08/16 09:29:18;;;;;;;3.72;2.28;;;;;;;20.66;93.97;99803.16;5032224;28;20048;-67
2021/08/16 09:32:09;;;;;;;3.80;1.98;;;;;;;20.56;95.81;99801.56;5049234;28;20033;-67
2021/08/16 09:34:42;;;;;;;;;;;;;;;20.41;97.59;99802.47;5043941;28;20060;-68
2021/08/16 09:37:26;;;;;;;5.43;2.05;;;;;;;20.25;100.00;99819.81;5046810;28;19916;-67
2021/08/16 09:40:07;;;;;;;5.25;2.45;;;;;;;20.14;100.00;99802.94;5044949;28;20039;-68
2021/08/16 09:42:52;;;;;;;3.78;2.65;;;;;;;19.92;100.00;99806.81;5048487;28;20032;-68
2021/08/16 09:45:28;;;;;;;8.13;2.42;;;;;;;19.96;100.00;99810.16;5028155;28;20029;-67
2021/08/16 09:47:56;;;;;;;6.03;2.92;;;;;;;20.06;100.00;99807.13;5034080;28;20087;-67
2021/08/16 09:50:22;;;;;;;5.43;2.55;;;;;;;20.05;100.00;99808.34;5035877;28;20026;-68
2021/08/16 09:52:48;;;;;;;5.38;2.80;;;;;;;20.00;100.00;99808.88;5030208;28;20036;-68
2021/08/16 09:55:14;;;;;;;8.35;2.58;;;;;;;19.77;100.00;99806.47;5039775;28;20059;-67
2021/08/16 09:57:40;;;;;;;3.83;2.65;;;;;;;19.66;100.00;99811.50;5034018;28;20501;-68
2021/08/16 10:00:06;;;;;;;5.60;2.40;;;;;;;19.61;100.00;99806.56;5033173;28;20029;-66
2021/08/16 10:02:35;;;;;;;7.70;3.15;;;;;;;19.52;100.00;99804.50;5032086;28;20036;-67
2021/08/16 10:05:00;;;;;;;9.43;2.97;;;;;;;19.43;100.00;99801.66;5031329;28;20492;-67
2021/08/16 10:07:29;;;;;;;4.90;2.85;;;;;;;19.56;100.00;99810.63;5035331;28;20037;-66
2021/08/16 10:09:59;;;;;;;6.30;2.72;;;;;;;19.57;100.00;99798.50;5033225;28;20037;-67
2021/08/16 10:12:27;;;;;;;7.28;2.42;;;;;;;19.63;100.00;99806.91;5044018;28;20104;-68
2021/08/16 10:14:54;;;;;;;6.50;2.25;;;;;;;19.52;100.00;99801.78;5045486;28;20036;-67
2021/08/16 10:17:28;;;;;;;6.72;2.90;;;;;;;19.61;100.00;99809.31;5051364;28;20033;-68
2021/08/16 10:19:58;;;;;;;5.15;2.80;;;;;;;19.35;100.00;99810.50;5024939;28;20033;-68
2021/08/16 10:22:23;;;;;;;4.35;2.40;;;;;;;19.29;100.00;99806.72;5038795;28;20072;-68
2021/08/16 10:24:49;;;;;;;6.53;2.55;;;;;;;19.08;100.00;99829.94;5048866;28;20033;-67
2021/08/16 10:27:15;;;;;;;4.38;2.70;;;;;;;19.18;100.00;99837.06;5049605;28;20029;-67
2021/08/16 10:29:41;;;;;;;5.75;3.10;;;;;;;19.09;100.00;99828.75;5048778;28;20063;-67
2021/08/16 10:32:20;;;;;;;6.47;3.00;;;;;;;19.16;100.00;99833.25;5030711;28;20103;-68
2021/08/16 10:34:46;;;;;;;7.55;2.83;;;;;;;19.06;100.00;99832.34;5057253;28;20082;-67
2021/08/16 10:37:15;;;;;;;4.80;2.55;;;;;;;19.04;100.00;99834.75;5052011;28;20041;-68
2021/08/16 10:39:47;;;;;;;7.95;2.30;;;;;;;19.16;100.00;99833.25;5038576;28;20047;-67
2021/08/16 10:42:15;;;;;;;3.03;1.73;;;;;;;19.22;100.00;99834.25;5032148;28;20030;-68
2021/08/16 10:44:45;;;;;;;2.90;1.55;;;;;;;19.07;100.00;99842.06;5038657;28;20033;-67
2021/08/16 10:47:23;;;;;;;2.08;1.40;;;;;;;19.08;100.00;99832.69;5046658;28;20040;-67
2021/08/16 10:49:49;;;;;;;1.63;1.13;;;;;;;18.85;100.00;99850.03;5041308;28;20036;-68
2021/08/16 10:52:20;;;;;;;2.15;1.23;;;;;;;18.89;100.00;99855.44;5049601;28;20056;-67
2021/08/16 10:54:46;;;;;;;1.90;1.10;;;;;;;18.67;100.00;99857.16;5030617;28;20038;-67
2021/08/16 10:57:11;;;;;;;2.72;1.10;;;;;;;18.85;100.00;99854.75;5049182;28;20049;-68
2021/08/16 10:59:37;;;;;;;3.33;0.88;;;;;;;18.70;100.00;99853.56;5027747;28;20104;-68
2021/08/16 11:02:03;;;;;;;1.20;0.95;;;;;;;18.80;100.00;99852.53;5037054;28;20033;-67
2021/08/16 11:04:34;;;;;;;3.08;1.02;;;;;;;18.78;100.00;99850.25;5042771;28;20052;-68
2021/08/16 11:07:09;;;;;;;4.32;0.98;;;;;;;18.80;100.00;99853.31;5014262;28;20036;-68
2021/08/16 11:09:37;;;;;;;2.70;1.10;;;;;;;18.66;100.00;99833.84;5048068;28;20048;-67
2021/08/16 11:12:09;;;;;;;1.20;0.80;;;;;;;18.71;100.00;99833.28;5044740;28;20516;-66
2021/08/16 11:14:41;;;;;;;1.45;0.88;;;;;;;18.83;100.00;99846.22;5049280;28;20481;-68
2021/08/16 11:17:07;;;;;;;1.33;1.00;;;;;;;18.86;100.00;99848.88;5052473;28;20037;-66
2021/08/16 11:19:45;;;;;;;1.10;0.90;;;;;;;18.87;100.00;99849.63;5035090;28;20140;-67
2021/08/16 11:22:11;;;;;;;1.05;0.75;;;;;;;18.87;100.00;99842.19;5039431;28;20044;-68
2021/08/16 11:24:39;;;;;;;2.38;0.80;;;;;;;18.98;100.00;99838.41;5034351;28;20112;-67